Time;durP1;ratioP1;P1;durP2;ratioP2;P2;SDS_P1;SDS_P2;PMS_P1;PMS_P2;Temp;Humidity;BMP_temperature;BMP_pressure;BME280_temperature;BME280_humidity;BME280_pressure;Samples;Min_cycle;Max_cycle;Signal;HPM_P1;HPM_P2
2023/01/17 00:01:12;;;;;;;0.63;0.50;;;;;;;2.24;100.00;95352.06;5073043;28;20232;-72
2023/01/17 00:11:47;;;;;;;0.83;0.63;;;;;;;2.14;100.00;95352.69;5076653;28;20254;-72
2023/01/17 00:14:13;;;;;;;2.13;0.70;;;;;;;2.10;100.00;95358.59;5077033;28;20189;-72
2023/01/17 00:16:40;;;;;;;0.73;0.60;;;;;;;2.10;100.00;95363.84;5076910;28;20207;-72
2023/01/17 01:33:38;;;;;;;1.97;1.10;;;;;;;2.29;100.00;95449.13;5075196;28;20176;-73
2023/01/17 01:36:07;;;;;;;2.43;0.90;;;;;;;2.21;100.00;95450.28;5075053;28;20291;-73
2023/01/17 01:38:34;;;;;;;1.07;0.90;;;;;;;2.18;100.00;95434.22;5075256;28;20211;-73
2023/01/17 01:41:00;;;;;;;1.73;0.97;;;;;;;2.17;100.00;95435.28;5075120;28;20201;-73
2023/01/17 01:43:48;;;;;;;2.73;0.90;;;;;;;2.18;100.00;95436.84;5075128;28;20205;-73
2023/01/17 01:46:19;;;;;;;1.40;0.90;;;;;;;2.24;100.00;95446.41;5075227;28;20195;-73
2023/01/17 01:48:51;;;;;;;1.10;1.00;;;;;;;2.23;100.00;95434.34;5073995;28;20196;-73
2023/01/17 01:51:29;;;;;;;1.60;1.10;;;;;;;2.24;100.00;95449.03;5075079;28;20228;-73
2023/01/17 01:54:02;;;;;;;1.43;0.87;;;;;;;2.30;100.00;95435.03;5074702;28;20185;-73
2023/01/17 01:56:29;;;;;;;1.77;1.00;;;;;;;2.36;100.00;95444.56;5074688;28;20641;-73
2023/01/17 01:58:59;;;;;;;0.90;0.83;;;;;;;2.33;100.00;95445.03;5074910;28;20571;-73
2023/01/17 02:01:25;;;;;;;1.37;0.67;;;;;;;2.29;100.00;95449.94;5073610;28;20235;-73
2023/01/17 02:03:52;;;;;;;1.23;0.73;;;;;;;2.32;100.00;95451.31;5074705;28;20228;-73
2023/01/17 02:06:35;;;;;;;1.23;0.90;;;;;;;2.34;100.00;95451.88;5074788;28;20572;-73
2023/01/17 02:09:06;;;;;;;1.87;1.00;;;;;;;2.36;100.00;95445.38;5075061;28;20189;-73
2023/01/17 02:11:35;;;;;;;2.97;1.23;;;;;;;2.38;100.00;95434.63;5074441;28;20236;-73
2023/01/17 02:14:02;;;;;;;1.40;0.80;;;;;;;2.36;100.00;95436.72;5075282;28;20185;-73
2023/01/17 02:17:02;;;;;;;2.50;1.00;;;;;;;2.29;100.00;95442.06;5074628;28;20204;-73
2023/01/17 02:19:37;;;;;;;0.90;0.90;;;;;;;2.35;100.00;95448.22;5074591;28;20199;-73
2023/01/17 02:22:31;;;;;;;1.97;0.80;;;;;;;2.39;100.00;95449.38;5074529;28;20251;-73
2023/01/17 02:25:25;;;;;;;2.03;0.90;;;;;;;2.35;100.00;95440.38;5073253;28;20223;-73
2023/01/17 02:27:54;;;;;;;2.20;1.00;;;;;;;2.42;100.00;95430.53;5074161;28;20185;-73
2023/01/17 02:30:39;;;;;;;1.13;0.93;;;;;;;2.39;100.00;95431.00;5073384;28;20208;-73
2023/01/17 02:33:09;;;;;;;1.80;0.80;;;;;;;2.41;100.00;95435.00;5074355;28;20315;-73
2023/01/17 02:36:02;;;;;;;2.00;0.70;;;;;;;2.46;100.00;95440.34;5074315;28;20215;-73
2023/01/17 02:38:51;;;;;;;2.03;0.97;;;;;;;2.40;100.00;95435.22;5074489;28;20196;-73
2023/01/17 02:41:30;;;;;;;3.20;1.10;;;;;;;2.42;100.00;95439.19;5074133;28;20229;-73
2023/01/17 02:43:56;;;;;;;1.17;1.00;;;;;;;2.36;100.00;95439.34;5073787;28;20296;-73
2023/01/17 02:46:23;;;;;;;1.10;1.00;;;;;;;2.41;100.00;95439.44;5074096;28;20204;-73
2023/01/17 02:48:51;;;;;;;2.10;1.00;;;;;;;2.42;100.00;95430.53;5074043;28;20207;-73
2023/01/17 02:51:20;;;;;;;1.20;0.80;;;;;;;2.41;100.00;95442.84;5073945;28;20587;-73
2023/01/17 02:54:11;;;;;;;1.10;1.00;;;;;;;2.38;100.00;95438.06;5074101;28;20204;-73
2023/01/17 02:56:56;;;;;;;1.97;0.90;;;;;;;2.33;100.00;95434.53;5073649;28;20651;-73
2023/01/17 02:59:59;;;;;;;1.47;1.07;;;;;;;2.32;100.00;95431.13;5072804;28;20554;-73
2023/01/17 03:02:31;;;;;;;2.93;1.40;;;;;;;2.42;100.00;95422.66;5058402;28;20235;-73
2023/01/17 03:05:22;;;;;;;1.60;1.00;;;;;;;2.41;100.00;95427.13;5073807;28;20231;-73
2023/01/17 03:07:51;;;;;;;2.63;1.00;;;;;;;2.37;100.00;95420.75;5073220;28;20189;-74
2023/01/17 03:10:19;;;;;;;1.10;1.00;;;;;;;2.38;100.00;95421.53;5073879;28;20209;-74
2023/01/17 03:12:45;;;;;;;1.90;0.90;;;;;;;2.34;100.00;95415.97;5073182;28;20243;-73
2023/01/17 03:15:16;;;;;;;1.50;0.97;;;;;;;2.36;100.00;95421.78;5073692;28;20201;-73
2023/01/17 03:17:47;;;;;;;1.40;1.00;;;;;;;2.37;100.00;95427.81;5073746;28;20193;-73
2023/01/17 03:20:13;;;;;;;1.43;1.00;;;;;;;2.34;100.00;95423.06;5073703;28;20216;-74
2023/01/17 03:22:40;;;;;;;2.90;1.07;;;;;;;2.32;100.00;95427.72;5073578;28;20594;-73
2023/01/17 03:25:06;;;;;;;2.30;0.90;;;;;;;2.38;100.00;95429.41;5073547;28;20220;-73
2023/01/17 03:27:32;;;;;;;3.57;0.90;;;;;;;2.40;100.00;95435.22;5073599;28;20200;-73
2023/01/17 03:29:59;;;;;;;0.97;0.80;;;;;;;2.31;100.00;95437.38;5073531;28;20219;-73
2023/01/17 03:32:25;;;;;;;1.33;0.63;;;;;;;2.37;100.00;95436.47;5073124;28;20228;-74
2023/01/17 03:34:51;;;;;;;2.10;0.77;;;;;;;2.41;100.00;95435.00;5073133;28;20207;-73
2023/01/17 03:37:18;;;;;;;0.60;0.60;;;;;;;2.32;100.00;95443.44;5073095;28;20211;-73
2023/01/17 03:39:44;;;;;;;0.67;0.67;;;;;;;2.27;100.00;95456.44;5073896;28;20208;-73
2023/01/17 03:42:10;;;;;;;1.13;0.80;;;;;;;2.19;100.00;95454.97;5075284;28;20235;-73
2023/01/17 03:44:37;;;;;;;0.60;0.60;;;;;;;1.89;100.00;95458.75;5077988;28;20226;-73
2023/01/17 03:47:03;;;;;;;1.00;0.80;;;;;;;1.79;100.00;95463.75;5077173;28;20736;-73
2023/01/17 03:49:30;;;;;;;2.60;0.70;;;;;;;1.63;100.00;95469.66;5077591;28;20201;-72
2023/01/17 03:51:57;;;;;;;0.80;0.70;;;;;;;1.45;100.00;95462.72;5077560;28;20302;-72
2023/01/17 03:54:23;;;;;;;0.77;0.77;;;;;;;1.46;100.00;95461.69;5077332;28;20208;-72
2023/01/17 03:56:49;;;;;;;1.03;0.60;;;;;;;1.40;100.00;95464.41;5077278;28;20211;-72
2023/01/17 03:59:16;;;;;;;0.67;0.67;;;;;;;1.37;100.00;95459.59;5077806;28;20204;-72
2023/01/17 04:01:42;;;;;;;1.27;0.70;;;;;;;1.31;100.00;95468.34;5076826;28;20227;-72
2023/01/17 04:04:08;;;;;;;0.70;0.70;;;;;;;1.25;100.00;95456.16;5076553;28;20678;-72
2023/01/17 04:06:35;;;;;;;1.20;0.70;;;;;;;1.20;100.00;95448.19;5076747;28;20211;-72
2023/01/17 04:09:01;;;;;;;0.63;0.63;;;;;;;1.23;100.00;95432.84;5077517;28;20211;-71
2023/01/17 04:11:27;;;;;;;1.47;0.80;;;;;;;1.28;100.00;95425.13;5076860;28;20568;-72
2023/01/17 04:13:54;;;;;;;0.90;0.50;;;;;;;1.32;100.00;95433.31;5076923;28;20212;-71
2023/01/17 04:16:26;;;;;;;0.97;0.60;;;;;;;1.33;100.00;95442.75;5076878;28;20204;-72
2023/01/17 04:18:52;;;;;;;0.60;0.60;;;;;;;1.26;100.00;95442.84;5076904;28;20189;-72
2023/01/17 04:21:18;;;;;;;0.93;0.70;;;;;;;1.32;100.00;95441.16;5076567;28;20224;-72
2023/01/17 04:23:45;;;;;;;0.77;0.73;;;;;;;1.38;100.00;95448.09;5076910;28;20211;-72
2023/01/17 04:26:12;;;;;;;1.90;1.00;;;;;;;1.37;100.00;95455.16;5076676;28;20228;-72
2023/01/17 04:28:38;;;;;;;1.10;0.80;;;;;;;1.42;100.00;95444.81;5077126;28;20535;-71
2023/01/17 04:31:05;;;;;;;0.60;0.60;;;;;;;1.44;100.00;95448.00;5076179;28;20213;-72
2023/01/17 04:33:31;;;;;;;1.00;0.80;;;;;;;1.49;100.00;95442.09;5076072;28;20670;-72
2023/01/17 04:35:58;;;;;;;0.87;0.83;;;;;;;1.43;100.00;95437.75;5076653;28;20208;-72
2023/01/17 04:38:24;;;;;;;1.43;0.87;;;;;;;1.50;100.00;95443.69;5076171;28;20205;-72
2023/01/17 04:40:51;;;;;;;0.90;0.90;;;;;;;1.56;100.00;95453.25;5076173;28;20227;-72
2023/01/17 04:43:17;;;;;;;2.30;0.90;;;;;;;1.53;100.00;95444.03;5075840;28;20570;-72
2023/01/17 04:45:44;;;;;;;1.17;1.00;;;;;;;1.48;100.00;95451.00;5075062;28;20528;-72
2023/01/17 04:48:11;;;;;;;1.00;0.90;;;;;;;1.45;100.00;95460.09;5075580;28;20226;-72
2023/01/17 04:50:38;;;;;;;1.20;1.10;;;;;;;1.49;100.00;95463.03;5075600;28;20262;-72
2023/01/17 04:53:05;;;;;;;1.07;1.07;;;;;;;1.53;100.00;95466.81;5074824;28;20236;-72
2023/01/17 04:55:31;;;;;;;1.63;1.30;;;;;;;1.54;100.00;95465.78;5074996;28;20204;-72
2023/01/17 04:57:58;;;;;;;3.77;1.30;;;;;;;1.63;100.00;95470.44;5075533;28;20205;-72
2023/01/17 05:00:24;;;;;;;1.50;1.23;;;;;;;1.70;100.00;95462.47;5075827;28;20208;-72
2023/01/17 05:02:50;;;;;;;1.60;1.30;;;;;;;1.70;100.00;95463.28;5075887;28;20224;-72
2023/01/17 05:05:17;;;;;;;2.53;1.30;;;;;;;1.71;100.00;95464.88;5076019;28;20220;-72
2023/01/17 05:07:43;;;;;;;1.33;1.10;;;;;;;1.76;100.00;95459.75;5075528;28;20205;-72
2023/01/17 05:10:10;;;;;;;3.70;1.33;;;;;;;1.75;100.00;95460.00;5075605;28;20208;-72
2023/01/17 05:12:36;;;;;;;2.20;1.27;;;;;;;1.75;100.00;95462.63;5075446;28;20246;-72
2023/01/17 05:15:03;;;;;;;1.27;1.10;;;;;;;1.86;100.00;95460.00;5075684;28;20203;-72
2023/01/17 05:17:29;;;;;;;1.30;1.20;;;;;;;1.81;100.00;95459.09;5075564;28;20227;-72
2023/01/17 05:19:56;;;;;;;3.57;1.17;;;;;;;1.56;100.00;95451.44;5075014;28;20682;-72
2023/01/17 05:22:22;;;;;;;1.20;1.03;;;;;;;1.64;100.00;95456.34;5075207;28;20311;-72
2023/01/17 05:24:48;;;;;;;2.07;1.00;;;;;;;1.61;100.00;95451.56;5074566;28;20718;-72
2023/01/17 05:27:15;;;;;;;1.77;1.03;;;;;;;1.60;100.00;95457.81;5074604;28;20208;-72
2023/01/17 05:29:42;;;;;;;2.87;1.03;;;;;;;1.64;100.00;95448.50;5075262;28;20204;-72
2023/01/17 05:32:08;;;;;;;4.40;1.37;;;;;;;1.60;100.00;95443.94;5075001;28;20225;-72
2023/01/17 05:34:35;;;;;;;3.20;1.13;;;;;;;1.54;100.00;95440.38;5074814;28;20216;-72
2023/01/17 05:37:01;;;;;;;3.47;1.03;;;;;;;1.50;100.00;95441.88;5074728;28;20621;-72
2023/01/17 05:39:29;;;;;;;2.00;0.90;;;;;;;1.58;100.00;95446.75;5073523;28;20231;-72
2023/01/17 05:41:56;;;;;;;2.23;0.80;;;;;;;1.53;100.00;95448.50;5074482;28;20229;-72
2023/01/17 05:44:22;;;;;;;3.03;1.43;;;;;;;1.49;100.00;95442.88;5074168;28;20664;-72
2023/01/17 05:46:48;;;;;;;1.40;1.13;;;;;;;1.45;100.00;95443.56;5075081;28;20674;-72
2023/01/17 05:49:15;;;;;;;3.30;1.20;;;;;;;1.20;100.00;95448.97;5074780;28;20287;-72
2023/01/17 05:51:41;;;;;;;4.73;2.47;;;;;;;1.14;100.00;95446.47;5074668;28;20250;-72
2023/01/17 05:54:07;;;;;;;4.10;1.23;;;;;;;1.09;100.00;95447.16;5074287;28;20208;-72
2023/01/17 05:56:34;;;;;;;1.37;1.00;;;;;;;1.08;100.00;95440.28;5074595;28;20201;-72
2023/01/17 05:59:00;;;;;;;4.53;1.27;;;;;;;1.05;100.00;95443.38;5074297;28;20209;-72
2023/01/17 06:01:27;;;;;;;3.63;1.40;;;;;;;1.11;100.00;95436.44;5074317;28;20405;-72
2023/01/17 06:03:53;;;;;;;2.57;1.23;;;;;;;1.02;100.00;95430.75;5074066;28;20208;-72
2023/01/17 06:06:19;;;;;;;5.07;1.37;;;;;;;0.94;100.00;95431.03;5074006;28;20235;-72
2023/01/17 06:08:46;;;;;;;4.07;1.60;;;;;;;0.93;100.00;95420.81;5074164;28;20209;-72
2023/01/17 06:11:12;;;;;;;5.53;1.70;;;;;;;0.89;100.00;95412.63;5073770;28;20228;-72
2023/01/17 06:13:38;;;;;;;2.30;1.20;;;;;;;0.86;100.00;95418.28;5073405;28;20663;-72
2023/01/17 06:16:05;;;;;;;3.53;1.17;;;;;;;0.95;100.00;95395.25;5073544;28;20685;-72
2023/01/17 06:18:31;;;;;;;2.87;1.40;;;;;;;0.89;100.00;95404.00;5073776;28;20208;-72
2023/01/17 06:20:58;;;;;;;2.53;1.30;;;;;;;0.83;100.00;95397.03;5074029;28;20204;-73
2023/01/17 06:23:25;;;;;;;1.50;1.20;;;;;;;0.80;100.00;95384.41;5073694;28;20570;-72
2023/01/17 06:25:52;;;;;;;4.07;1.40;;;;;;;0.88;100.00;95382.25;5073453;28;20232;-72
2023/01/17 06:28:21;;;;;;;2.47;1.00;;;;;;;0.91;100.00;95401.94;5073480;28;20204;-72
2023/01/17 06:30:48;;;;;;;3.13;1.30;;;;;;;0.82;100.00;95387.59;5073650;28;20212;-72
2023/01/17 06:33:14;;;;;;;2.40;1.20;;;;;;;0.87;100.00;95385.09;5073849;28;20216;-72
2023/01/17 06:35:47;;;;;;;3.17;1.50;;;;;;;0.87;100.00;95383.28;5073303;28;20581;-73
2023/01/17 06:38:14;;;;;;;2.50;1.30;;;;;;;0.86;100.00;95381.66;5073239;28;20189;-73
2023/01/17 06:40:40;;;;;;;2.20;1.10;;;;;;;0.82;100.00;95377.13;5073709;28;20572;-73
2023/01/17 06:43:07;;;;;;;3.30;1.20;;;;;;;0.78;100.00;95394.28;5073377;28;20594;-73
2023/01/17 06:45:35;;;;;;;3.70;1.50;;;;;;;0.75;100.00;95392.09;5073250;28;20224;-73
2023/01/17 06:48:02;;;;;;;6.27;1.43;;;;;;;0.71;100.00;95388.38;5072621;28;20624;-72
2023/01/17 06:50:29;;;;;;;5.70;1.60;;;;;;;0.69;100.00;95393.00;5073303;28;20215;-73
2023/01/17 06:52:58;;;;;;;3.33;1.30;;;;;;;0.70;100.00;95397.19;5073131;28;20319;-73
2023/01/17 06:55:27;;;;;;;4.50;1.47;;;;;;;0.75;100.00;95399.94;5072900;28;20226;-73
2023/01/17 06:57:55;;;;;;;2.47;1.30;;;;;;;0.80;100.00;95400.09;5073015;28;20204;-73
2023/01/17 07:00:21;;;;;;;3.27;1.50;;;;;;;0.69;100.00;95401.66;5072884;28;20208;-74
2023/01/17 07:02:51;;;;;;;4.47;2.77;;;;;;;0.66;100.00;95399.47;5072878;28;20228;-73
2023/01/17 07:05:18;;;;;;;3.50;1.70;;;;;;;0.61;100.00;95401.16;5072968;28;20640;-73
2023/01/17 07:07:46;;;;;;;2.50;1.50;;;;;;;0.65;100.00;95397.06;5052474;28;20197;-73
2023/01/17 07:10:14;;;;;;;2.87;1.40;;;;;;;0.61;100.00;95388.88;5051821;28;20216;-73
2023/01/17 07:12:41;;;;;;;8.83;1.43;;;;;;;0.63;100.00;95391.28;5051592;28;20237;-72
2023/01/17 07:15:08;;;;;;;2.00;1.20;;;;;;;0.60;100.00;95384.69;5052254;28;20219;-73
2023/01/17 07:17:35;;;;;;;1.43;1.33;;;;;;;0.63;100.00;95388.66;5051960;28;20205;-72
2023/01/17 07:20:01;;;;;;;2.00;1.33;;;;;;;0.62;100.00;95381.84;5051831;28;20205;-72
2023/01/17 07:22:27;;;;;;;2.27;1.33;;;;;;;0.66;100.00;95377.75;5052442;28;20324;-72
2023/01/17 07:24:57;;;;;;;1.83;1.33;;;;;;;0.68;100.00;95378.34;5052461;28;20216;-72
2023/01/17 07:27:29;;;;;;;2.90;1.30;;;;;;;0.76;100.00;95370.19;5052641;28;20713;-72
2023/01/17 07:29:56;;;;;;;1.87;1.50;;;;;;;0.84;100.00;95370.66;5052371;28;20708;-72
2023/01/17 07:32:24;;;;;;;3.50;1.73;;;;;;;0.94;100.00;95370.13;5052591;28;20616;-72
2023/01/17 07:34:51;;;;;;;2.87;1.20;;;;;;;0.97;100.00;95360.00;5052720;28;20205;-72
2023/01/17 07:37:18;;;;;;;2.53;1.47;;;;;;;0.98;100.00;95353.75;5052408;28;20227;-72
2023/01/17 07:39:45;;;;;;;2.00;1.40;;;;;;;0.98;100.00;95356.34;5052478;28;20205;-72
2023/01/17 07:42:11;;;;;;;2.70;1.80;;;;;;;0.95;100.00;95350.78;5052617;28;20307;-71
2023/01/17 07:44:39;;;;;;;2.70;1.80;;;;;;;0.94;100.00;95354.44;5052934;28;20213;-71
2023/01/17 07:47:06;;;;;;;5.73;1.90;;;;;;;0.95;100.00;95356.00;5052087;28;20262;-72
2023/01/17 07:49:32;;;;;;;7.83;1.70;;;;;;;0.92;100.00;95357.25;5052502;28;20572;-71
2023/01/17 07:51:58;;;;;;;4.30;1.90;;;;;;;0.88;100.00;95347.47;5052469;28;20232;-72
2023/01/17 07:54:25;;;;;;;3.70;2.20;;;;;;;0.92;100.00;95351.22;5052354;28;20278;-71
2023/01/17 07:56:51;;;;;;;5.87;2.10;;;;;;;1.00;100.00;95343.06;5052694;28;20204;-72
2023/01/17 07:59:18;;;;;;;5.33;2.50;;;;;;;1.01;100.00;95340.22;5052558;28;20208;-72
2023/01/17 08:01:44;;;;;;;4.17;2.30;;;;;;;1.03;100.00;95342.63;5052542;28;20232;-72
2023/01/17 08:04:11;;;;;;;3.73;2.13;;;;;;;0.97;100.00;95341.69;5052675;28;20205;-72
2023/01/17 08:06:39;;;;;;;7.80;2.30;;;;;;;1.02;100.00;95351.47;5052487;28;20232;-72
2023/01/17 08:09:05;;;;;;;3.70;2.30;;;;;;;1.09;100.00;95341.72;5052725;28;20205;-72
2023/01/17 08:11:31;;;;;;;7.67;2.53;;;;;;;1.12;100.00;95344.66;5052364;28;20232;-72
2023/01/17 08:13:58;;;;;;;4.10;2.10;;;;;;;1.16;100.00;95340.56;5052495;28;20209;-72
2023/01/17 08:16:26;;;;;;;5.23;2.00;;;;;;;1.18;100.00;95346.38;5052420;28;20669;-72
2023/01/17 08:18:54;;;;;;;4.80;2.40;;;;;;;1.24;100.00;95349.91;5052482;28;20202;-72
2023/01/17 08:21:21;;;;;;;5.27;2.27;;;;;;;1.28;100.00;95345.81;5052728;28;20222;-72
2023/01/17 08:23:51;;;;;;;3.87;2.30;;;;;;;1.39;100.00;95350.28;5052504;28;20301;-72
2023/01/17 08:26:21;;;;;;;3.03;2.17;;;;;;;1.51;100.00;95348.44;5052280;28;20251;-72
2023/01/17 08:28:59;;;;;;;4.17;2.63;;;;;;;1.55;100.00;95350.38;5054677;28;20213;-72
2023/01/17 08:31:25;;;;;;;4.40;2.30;;;;;;;1.60;100.00;95349.69;5055951;28;20225;-72
2023/01/17 08:33:52;;;;;;;4.90;2.53;;;;;;;1.70;100.00;95347.28;5055750;28;20209;-72
2023/01/17 08:36:18;;;;;;;5.43;2.40;;;;;;;1.76;100.00;95354.22;5056027;28;20207;-72
2023/01/17 08:38:44;;;;;;;5.90;2.73;;;;;;;1.79;100.00;95351.13;5055804;28;20209;-72
2023/01/17 08:41:11;;;;;;;5.70;2.60;;;;;;;1.80;100.00;95345.66;5055791;28;20255;-72
2023/01/17 08:43:38;;;;;;;8.70;2.77;;;;;;;1.87;100.00;95356.03;5055770;28;20293;-72
2023/01/17 08:46:05;;;;;;;3.73;2.00;;;;;;;1.85;100.00;95347.63;5055465;28;20715;-72
2023/01/17 08:48:31;;;;;;;2.67;2.10;;;;;;;1.94;100.00;95347.00;5055618;28;20541;-72
2023/01/17 08:51:02;;;;;;;4.80;2.40;;;;;;;2.03;100.00;95344.84;5056455;28;20217;-72
2023/01/17 08:53:29;;;;;;;3.47;2.20;;;;;;;2.15;100.00;95337.72;5055747;28;20209;-72
2023/01/17 08:56:00;;;;;;;3.83;2.37;;;;;;;2.14;100.00;95341.38;5055543;28;20201;-72
2023/01/17 08:58:28;;;;;;;5.47;2.50;;;;;;;2.20;100.00;95337.81;5055707;28;20653;-72
2023/01/17 09:00:55;;;;;;;5.83;2.30;;;;;;;2.29;100.00;95346.91;5055436;28;20201;-72
2023/01/17 09:03:21;;;;;;;4.77;2.60;;;;;;;2.35;100.00;95340.75;5055181;28;20281;-72
2023/01/17 09:05:47;;;;;;;6.33;2.50;;;;;;;2.39;100.00;95339.28;5055469;28;20225;-72
2023/01/17 09:08:14;;;;;;;3.50;1.97;;;;;;;2.47;100.00;95337.06;5055136;28;20211;-72
2023/01/17 09:10:40;;;;;;;5.03;2.00;;;;;;;2.51;100.00;95338.19;5054687;28;20202;-72
2023/01/17 09:13:06;;;;;;;4.57;1.97;;;;;;;2.53;100.00;95341.34;5054754;28;20237;-72
2023/01/17 09:15:33;;;;;;;4.80;2.37;;;;;;;2.52;100.00;95339.78;5055553;28;20202;-72
2023/01/17 09:18:00;;;;;;;4.60;1.87;;;;;;;2.59;100.00;95334.38;5055650;28;20205;-72
2023/01/17 09:20:28;;;;;;;2.87;1.73;;;;;;;2.63;100.00;95327.63;5055457;28;20209;-72
2023/01/17 09:22:55;;;;;;;4.40;2.00;;;;;;;2.65;100.00;95333.44;5054885;28;20287;-72
2023/01/17 09:25:21;;;;;;;3.70;1.80;;;;;;;2.84;100.00;95329.59;5054514;28;20681;-72
2023/01/17 09:27:48;;;;;;;5.00;2.07;;;;;;;2.96;100.00;95325.06;5054268;28;20384;-72
2023/01/17 09:30:14;;;;;;;3.60;1.80;;;;;;;3.00;100.00;95326.16;5054286;28;20688;-72
2023/01/17 09:32:41;;;;;;;2.87;1.87;;;;;;;3.04;100.00;95325.47;5054412;28;20229;-72
2023/01/17 09:35:07;;;;;;;5.50;2.03;;;;;;;2.96;100.00;95325.06;5054782;28;20206;-72
2023/01/17 09:37:35;;;;;;;3.33;1.83;;;;;;;2.93;100.00;95321.06;5054605;28;20206;-72
2023/01/17 09:40:02;;;;;;;3.23;1.87;;;;;;;2.92;100.00;95310.81;5053802;28;20575;-72
2023/01/17 09:42:39;;;;;;;2.63;2.20;;;;;;;2.88;100.00;95310.50;5054612;28;20229;-72
2023/01/17 09:45:16;;;;;;;3.60;2.53;;;;;;;2.88;100.00;95301.81;5055411;28;20189;-72
2023/01/17 09:47:47;;;;;;;5.30;2.17;;;;;;;2.87;100.00;95301.06;5053459;28;20209;-72
2023/01/17 09:50:37;;;;;;;3.27;2.63;;;;;;;2.89;100.00;95301.59;5055225;28;20196;-72
2023/01/17 09:53:07;;;;;;;5.97;2.80;;;;;;;2.99;100.00;95301.75;5054295;28;20229;-72
2023/01/17 09:55:42;;;;;;;4.50;2.60;;;;;;;3.02;100.00;95306.53;5054448;28;20209;-72
2023/01/17 09:58:34;;;;;;;4.07;2.77;;;;;;;3.11;100.00;95306.94;5054683;28;20215;-72
2023/01/17 10:01:42;;;;;;;4.13;2.87;;;;;;;3.24;100.00;95296.91;5054502;28;20194;-72
2023/01/17 10:04:21;;;;;;;3.63;2.87;;;;;;;3.22;100.00;95295.56;5053562;28;20220;-72
2023/01/17 10:07:13;;;;;;;6.87;2.63;;;;;;;3.39;98.92;95304.22;5053365;28;20222;-72
2023/01/17 10:09:53;;;;;;;4.03;2.33;;;;;;;3.45;99.14;95295.38;5054433;28;20197;-72
2023/01/17 10:12:43;;;;;;;3.50;2.57;;;;;;;3.32;100.00;95293.06;5053856;28;20703;-72
2023/01/17 10:15:30;;;;;;;3.23;2.30;;;;;;;3.27;100.00;95295.63;5054147;28;20193;-72
2023/01/17 10:18:05;;;;;;;4.37;2.73;;;;;;;3.23;98.58;95297.13;5054610;28;20190;-72
2023/01/17 10:21:01;;;;;;;4.13;2.10;;;;;;;3.29;100.00;95290.94;5053315;28;20193;-72
2023/01/17 10:23:56;;;;;;;6.37;2.70;;;;;;;3.44;96.22;95296.41;5051003;28;20209;-72
2023/01/17 10:26:27;;;;;;;4.30;2.43;;;;;;;3.56;95.89;95283.97;5053162;28;20261;-72
2023/01/17 10:29:00;;;;;;;4.63;2.30;;;;;;;3.59;95.97;95283.47;5053916;28;20216;-72
2023/01/17 10:31:47;;;;;;;3.37;1.97;;;;;;;3.58;95.86;95287.16;5052514;28;20229;-72
2023/01/17 10:34:19;;;;;;;3.30;2.30;;;;;;;3.68;96.16;95287.28;5052855;28;20200;-72
2023/01/17 10:36:52;;;;;;;4.40;2.10;;;;;;;3.71;94.35;95286.81;5054037;28;20190;-72
2023/01/17 10:39:26;;;;;;;2.87;2.00;;;;;;;3.91;89.05;95285.22;5054103;28;20227;-72
2023/01/17 10:42:00;;;;;;;5.47;2.10;;;;;;;3.76;93.99;95277.13;5053931;28;20232;-72
2023/01/17 10:44:40;;;;;;;3.60;1.90;;;;;;;3.92;86.13;95278.13;5052605;28;20584;-72
2023/01/17 10:47:19;;;;;;;2.43;1.70;;;;;;;4.02;82.69;95276.41;5053824;28;20219;-72
2023/01/17 10:49:50;;;;;;;2.90;1.50;;;;;;;4.01;80.38;95279.28;5053660;28;20199;-72
2023/01/17 10:52:38;;;;;;;3.37;1.77;;;;;;;3.88;85.43;95269.94;5052786;28;20224;-72
2023/01/17 10:55:24;;;;;;;4.27;1.60;;;;;;;3.80;86.71;95267.72;5053813;28;20197;-72
2023/01/17 10:57:51;;;;;;;3.20;1.70;;;;;;;3.87;86.00;95264.94;5053523;28;20185;-72
2023/01/17 11:00:43;;;;;;;3.47;1.67;;;;;;;3.97;83.99;95259.81;5053364;28;20205;-72
2023/01/17 11:03:15;;;;;;;3.07;1.97;;;;;;;4.15;83.66;95251.56;5053423;28;20229;-72
2023/01/17 11:05:42;;;;;;;4.00;1.70;;;;;;;4.09;81.12;95263.88;5052900;28;20587;-72
2023/01/17 11:08:16;;;;;;;3.03;2.20;;;;;;;4.02;85.99;95255.38;5053441;28;20209;-72
2023/01/17 11:10:49;;;;;;;3.63;1.90;;;;;;;4.11;84.00;95256.53;5053315;28;20204;-72
2023/01/17 11:13:30;;;;;;;2.97;2.00;;;;;;;4.07;84.85;95252.81;5051907;28;20244;-72
2023/01/17 11:16:01;;;;;;;3.73;2.10;;;;;;;4.32;81.33;95260.19;5053383;28;20189;-72
2023/01/17 11:18:32;;;;;;;1.40;1.30;;;;;;;4.33;77.74;95256.50;5053236;28;20210;-72
2023/01/17 11:21:22;;;;;;;3.30;1.60;;;;;;;4.45;81.94;95247.44;5053269;28;20247;-72
2023/01/17 11:23:51;;;;;;;1.00;0.90;;;;;;;4.61;72.44;95240.50;5053254;28;20193;-72
2023/01/17 11:26:27;;;;;;;2.73;1.00;;;;;;;4.66;70.70;95230.00;5052832;28;20276;-72
2023/01/17 11:29:33;;;;;;;3.87;1.40;;;;;;;4.88;72.69;95215.69;5053136;28;20193;-72
2023/01/17 11:32:28;;;;;;;2.53;1.20;;;;;;;5.01;69.52;95204.75;5052733;28;20696;-72
2023/01/17 11:35:09;;;;;;;1.70;1.00;;;;;;;5.13;71.79;95205.38;5052635;28;20198;-72
2023/01/17 11:37:36;;;;;;;2.70;1.10;;;;;;;5.26;71.67;95202.28;5052545;28;20211;-72
2023/01/17 11:40:37;;;;;;;1.00;0.60;;;;;;;5.29;67.39;95206.25;5052971;28;20592;-72
2023/01/17 11:43:06;;;;;;;1.60;0.90;;;;;;;4.97;67.35;95203.66;5053005;28;20225;-72
2023/01/17 11:45:34;;;;;;;2.10;0.87;;;;;;;5.07;70.45;95208.22;5052372;28;20208;-73
2023/01/17 11:48:09;;;;;;;1.43;0.70;;;;;;;5.43;68.07;95207.38;5052791;28;20240;-73
2023/01/17 11:50:38;;;;;;;1.67;0.70;;;;;;;5.38;68.38;95194.19;5052911;28;20227;-73
2023/01/17 11:53:27;;;;;;;0.90;0.70;;;;;;;5.70;63.55;95193.00;5052805;28;20559;-73
2023/01/17 11:56:19;;;;;;;1.40;0.80;;;;;;;5.64;64.54;95185.34;5052804;28;20189;-73
2023/01/17 11:58:46;;;;;;;3.63;0.67;;;;;;;5.69;65.06;95180.06;5052670;28;20194;-73
2023/01/17 12:01:47;;;;;;;1.90;0.80;;;;;;;6.05;61.81;95166.00;5053111;28;20228;-73
2023/01/17 12:04:45;;;;;;;1.53;0.60;;;;;;;5.75;58.16;95165.88;5042027;28;20204;-73
2023/01/17 12:07:39;;;;;;;3.90;0.60;;;;;;;5.80;63.44;95152.72;5056070;28;20225;-73
2023/01/17 12:10:30;;;;;;;0.77;0.60;;;;;;;5.49;62.58;95138.66;5056659;28;20199;-73
2023/01/17 12:18:58;;;;;;;3.73;0.80;;;;;;;5.19;61.47;95143.78;5048869;28;20205;-73
2023/01/17 12:21:39;;;;;;;1.53;0.60;;;;;;;5.12;61.90;95143.22;5056261;28;20225;-73
2023/01/17 12:24:29;;;;;;;2.87;0.77;;;;;;;4.93;63.28;95139.41;5056443;28;20555;-73
2023/01/17 12:27:21;;;;;;;0.70;0.70;;;;;;;4.78;64.24;95123.53;5054972;28;20209;-73
2023/01/17 12:29:57;;;;;;;2.83;0.80;;;;;;;4.99;63.99;95121.81;5055913;28;20284;-73
2023/01/17 12:32:54;;;;;;;3.73;0.57;;;;;;;4.90;64.41;95124.16;5054662;28;20228;-73
2023/01/17 12:35:29;;;;;;;3.47;0.70;;;;;;;4.94;61.85;95119.16;5056014;28;20209;-73
2023/01/17 12:38:05;;;;;;;2.23;0.63;;;;;;;4.92;62.66;95114.13;5056567;28;20192;-72
2023/01/17 12:40:36;;;;;;;2.03;0.50;;;;;;;5.08;59.98;95112.38;5056156;28;20193;-73
2023/01/17 12:43:13;;;;;;;1.60;0.63;;;;;;;4.87;61.39;95108.06;5055540;28;20228;-73
2023/01/17 12:45:43;;;;;;;3.17;0.80;;;;;;;4.94;63.25;95098.91;5055041;28;20193;-73
2023/01/17 12:48:16;;;;;;;3.60;1.10;;;;;;;5.01;64.25;95101.28;5056058;28;20244;-73
2023/01/17 12:50:56;;;;;;;2.43;0.80;;;;;;;4.87;61.26;95098.31;5055914;28;20194;-72
2023/01/17 12:53:40;;;;;;;2.20;0.60;;;;;;;4.94;61.14;95088.38;5055498;28;20497;-72
2023/01/17 12:56:14;;;;;;;4.00;0.80;;;;;;;5.12;63.19;95090.56;5055611;28;20429;-72
2023/01/17 12:58:50;;;;;;;2.83;0.80;;;;;;;4.93;61.81;95078.88;5055764;28;20189;-72
2023/01/17 13:01:28;;;;;;;1.77;0.90;;;;;;;4.88;61.32;95073.59;5055456;28;20229;-73
2023/01/17 13:04:36;;;;;;;0.90;0.73;;;;;;;4.79;63.64;95074.34;5054242;28;20629;-72
2023/01/17 13:07:17;;;;;;;1.73;0.70;;;;;;;4.73;62.24;95064.81;5054110;28;20210;-73
2023/01/17 13:09:51;;;;;;;1.97;0.80;;;;;;;4.79;60.74;95059.31;5056145;28;20204;-72
2023/01/17 13:12:21;;;;;;;3.77;0.90;;;;;;;4.78;62.82;95062.22;5054070;28;20236;-73
2023/01/17 13:14:48;;;;;;;1.30;0.90;;;;;;;4.77;60.93;95061.44;5054795;28;20216;-72
2023/01/17 13:17:34;;;;;;;3.00;0.80;;;;;;;4.82;60.36;95060.66;5055583;28;20573;-73
2023/01/17 13:20:24;;;;;;;2.90;0.70;;;;;;;4.85;58.63;95057.53;5055239;28;20577;-73
2023/01/17 13:22:51;;;;;;;0.87;0.73;;;;;;;4.98;59.74;95070.22;5055280;28;20665;-73
2023/01/17 13:25:43;;;;;;;1.00;0.90;;;;;;;4.83;61.77;95060.41;5054911;28;20209;-72
2023/01/17 13:28:33;;;;;;;2.00;0.87;;;;;;;4.67;63.12;95052.69;5054590;28;20668;-72